Time;durP1;ratioP1;P1;durP2;ratioP2;P2;SDS_P1;SDS_P2;PMS_P1;PMS_P2;Temp;Humidity;BMP_temperature;BMP_pressure;BME280_temperature;BME280_humidity;BME280_pressure;Samples;Min_cycle;Max_cycle;Signal;HPM_P1;HPM_P2
2023/08/20 00:00:16;;;;;;;10.57;6.97;;;24.80;99.90;;;;;;4999114;28;20033;-84
2023/08/20 00:02:43;;;;;;;9.02;6.55;;;24.70;99.90;;;;;;5015971;28;20026;-84
2023/08/20 00:05:09;;;;;;;9.88;7.10;;;24.70;99.90;;;;;;5016162;28;20030;-84
2023/08/20 00:07:35;;;;;;;9.15;6.45;;;24.70;99.90;;;;;;5015704;28;20026;-86
2023/08/20 00:10:04;;;;;;;11.23;7.07;;;24.70;99.90;;;;;;4998648;28;20038;-86
2023/08/20 00:12:30;;;;;;;12.57;7.35;;;24.70;99.90;;;;;;4998377;28;20026;-86
2023/08/20 00:14:58;;;;;;;9.90;6.57;;;24.60;99.90;;;;;;5016273;28;20033;-86
2023/08/20 00:17:28;;;;;;;10.48;7.00;;;24.60;99.90;;;;;;4998490;28;20026;-87
2023/08/20 00:19:54;;;;;;;9.48;6.25;;;24.60;99.90;;;;;;5015783;28;20479;-86
2023/08/20 00:22:25;;;;;;;9.27;7.07;;;24.60;99.90;;;;;;4998439;28;20542;-85
2023/08/20 00:24:54;;;;;;;8.48;6.50;;;24.60;99.90;;;;;;4998386;28;20070;-85
2023/08/20 00:27:21;;;;;;;8.57;6.82;;;24.50;99.90;;;;;;4998365;28;20030;-85
2023/08/20 00:29:46;;;;;;;9.10;6.55;;;24.50;99.90;;;;;;4997865;28;20120;-84
2023/08/20 00:32:14;;;;;;;10.82;6.68;;;24.50;99.90;;;;;;4998443;28;20427;-85
2023/08/20 00:34:40;;;;;;;9.55;6.53;;;24.50;99.90;;;;;;4998019;28;20036;-86
2023/08/20 00:37:05;;;;;;;8.63;6.78;;;24.40;99.90;;;;;;4998373;28;20026;-86
2023/08/20 00:39:31;;;;;;;10.55;7.25;;;24.40;99.90;;;;;;4997429;28;20550;-86
2023/08/20 00:41:57;;;;;;;10.35;7.18;;;24.40;99.90;;;;;;4997764;28;20034;-85
2023/08/20 00:44:22;;;;;;;8.98;6.90;;;24.40;99.90;;;;;;4997972;28;20168;-86
2023/08/20 00:46:48;;;;;;;9.85;6.18;;;24.30;99.90;;;;;;5014662;28;20133;-85
2023/08/20 00:49:14;;;;;;;8.85;6.82;;;24.30;99.90;;;;;;5015470;28;20079;-86
2023/08/20 00:51:39;;;;;;;10.60;6.93;;;24.30;99.90;;;;;;4997532;28;20096;-86
2023/08/20 00:54:05;;;;;;;8.63;6.70;;;24.20;99.90;;;;;;4998331;28;20044;-86
2023/08/20 00:56:31;;;;;;;9.57;6.85;;;24.20;99.90;;;;;;4997354;28;20022;-86
2023/08/20 00:58:57;;;;;;;10.05;7.20;;;24.10;99.90;;;;;;4998194;28;20026;-86
2023/08/20 01:01:23;;;;;;;9.63;6.90;;;24.10;99.90;;;;;;5015313;28;20026;-86
2023/08/20 01:03:48;;;;;;;10.95;6.85;;;24.00;99.90;;;;;;5014936;28;20040;-86
2023/08/20 01:06:25;;;;;;;10.40;6.93;;;24.00;99.90;;;;;;5015147;28;20034;-86
2023/08/20 01:09:00;;;;;;;12.50;7.45;;;23.90;99.90;;;;;;4997382;28;20032;-86
2023/08/20 01:11:33;;;;;;;8.88;6.30;;;23.90;99.90;;;;;;4997452;28;20116;-87
2023/08/20 01:14:00;;;;;;;8.95;6.93;;;23.90;99.90;;;;;;4998235;28;20033;-86
2023/08/20 01:16:26;;;;;;;8.63;6.80;;;23.90;99.90;;;;;;4997636;28;20022;-87
2023/08/20 01:18:53;;;;;;;9.77;6.82;;;23.90;99.90;;;;;;4997490;28;20049;-86
2023/08/20 01:21:41;;;;;;;8.98;6.82;;;23.90;99.90;;;;;;4997646;28;20030;-86
2023/08/20 01:24:28;;;;;;;9.95;6.78;;;23.90;99.90;;;;;;5014734;28;20029;-86
2023/08/20 01:27:10;;;;;;;12.57;6.70;;;23.90;99.90;;;;;;4996961;28;20156;-86
2023/08/20 01:29:36;;;;;;;10.05;7.13;;;23.80;99.90;;;;;;4996811;28;20470;-87
2023/08/20 01:32:04;;;;;;;9.70;6.43;;;23.70;99.90;;;;;;5014947;28;20033;-86
2023/08/20 01:34:30;;;;;;;9.82;6.45;;;23.70;99.90;;;;;;5013744;28;20021;-87
2023/08/20 01:36:55;;;;;;;9.48;6.13;;;23.60;99.90;;;;;;4997554;28;20022;-86
2023/08/20 01:39:21;;;;;;;7.57;5.95;;;23.70;99.90;;;;;;5014520;28;20026;-86
2023/08/20 01:41:47;;;;;;;6.93;6.07;;;23.60;99.90;;;;;;4996924;28;20096;-86
2023/08/20 01:44:12;;;;;;;10.27;5.75;;;23.60;99.90;;;;;;4997289;28;20473;-86
2023/08/20 01:46:38;;;;;;;8.15;5.97;;;23.50;99.90;;;;;;5014184;28;20085;-86
2023/08/20 01:49:04;;;;;;;8.05;5.72;;;23.50;99.90;;;;;;5014775;28;20054;-86
2023/08/20 01:51:29;;;;;;;10.00;6.43;;;23.50;99.90;;;;;;4996980;28;20471;-87
2023/08/20 01:53:55;;;;;;;7.13;6.32;;;23.40;99.90;;;;;;4997002;28;20069;-87
2023/08/20 01:56:20;;;;;;;6.88;6.03;;;23.50;99.90;;;;;;5014272;28;20084;-87
2023/08/20 01:58:46;;;;;;;9.52;6.28;;;23.50;99.90;;;;;;4996587;28;20452;-86
2023/08/20 02:01:11;;;;;;;7.85;5.72;;;23.40;99.90;;;;;;4996912;28;20026;-86
2023/08/20 02:03:40;;;;;;;7.35;6.10;;;23.40;99.90;;;;;;4996318;28;20091;-85
2023/08/20 02:06:05;;;;;;;7.53;5.97;;;23.50;99.90;;;;;;4996534;28;20048;-86
2023/08/20 02:08:31;;;;;;;11.75;6.38;;;23.40;99.90;;;;;;4996720;28;20022;-87
2023/08/20 02:11:01;;;;;;;8.20;6.15;;;23.30;99.90;;;;;;5014262;28;20034;-85
2023/08/20 02:13:27;;;;;;;8.00;5.75;;;23.30;99.90;;;;;;4997126;28;20033;-84
2023/08/20 02:16:03;;;;;;;12.25;6.50;;;23.30;99.90;;;;;;5014124;28;20088;-84
2023/08/20 02:18:30;;;;;;;7.95;6.00;;;23.30;99.90;;;;;;4996557;28;20493;-87
2023/08/20 02:20:55;;;;;;;10.80;6.60;;;23.40;99.90;;;;;;4996867;28;20038;-84
2023/08/20 02:23:21;;;;;;;8.55;6.28;;;23.40;99.90;;;;;;4996666;28;20041;-84
2023/08/20 02:25:48;;;;;;;7.90;6.30;;;23.40;99.90;;;;;;5013605;28;20026;-84
2023/08/20 02:28:13;;;;;;;8.82;6.60;;;23.40;99.90;;;;;;5014069;28;20105;-85
2023/08/20 02:30:44;;;;;;;7.03;5.97;;;23.30;99.90;;;;;;5013852;28;20049;-84
2023/08/20 02:33:10;;;;;;;8.02;6.18;;;23.30;99.90;;;;;;4996653;28;20029;-84
2023/08/20 02:35:36;;;;;;;9.20;6.47;;;23.20;99.90;;;;;;5013702;28;20026;-85
2023/08/20 02:38:02;;;;;;;9.77;6.45;;;23.20;99.90;;;;;;5013953;28;20026;-84
2023/08/20 02:40:28;;;;;;;8.32;6.13;;;23.20;99.90;;;;;;4996130;28;20525;-85
2023/08/20 02:42:53;;;;;;;10.15;6.47;;;23.20;99.90;;;;;;4995853;28;20395;-84
2023/08/20 02:45:19;;;;;;;8.82;6.15;;;23.20;99.90;;;;;;4997121;28;20125;-85
2023/08/20 02:47:44;;;;;;;9.55;6.15;;;23.20;99.90;;;;;;4999960;28;20033;-85
2023/08/20 02:50:10;;;;;;;10.50;6.65;;;23.20;99.90;;;;;;5000351;28;20058;-84
2023/08/20 02:52:36;;;;;;;10.30;6.38;;;23.20;99.90;;;;;;4999691;28;20022;-85
2023/08/20 02:55:03;;;;;;;10.05;6.57;;;23.10;99.90;;;;;;5017265;28;20033;-85
2023/08/20 02:57:28;;;;;;;9.52;6.38;;;23.10;99.90;;;;;;4999759;28;20022;-84
2023/08/20 02:59:54;;;;;;;11.45;7.18;;;23.10;99.90;;;;;;5016560;28;20033;-85
2023/08/20 03:02:20;;;;;;;11.05;6.78;;;23.00;99.90;;;;;;5017014;28;20493;-85
2023/08/20 03:04:45;;;;;;;8.40;6.75;;;23.10;99.90;;;;;;5016374;28;20029;-85
2023/08/20 03:07:11;;;;;;;8.60;6.47;;;23.10;99.90;;;;;;5017307;28;20072;-84
2023/08/20 03:09:36;;;;;;;8.85;6.28;;;23.00;99.90;;;;;;4999562;28;20410;-85
2023/08/20 03:12:02;;;;;;;8.93;6.72;;;23.00;99.90;;;;;;5000086;28;20018;-85
2023/08/20 03:14:28;;;;;;;11.05;6.82;;;22.90;99.90;;;;;;4999773;28;20084;-84
2023/08/20 03:16:53;;;;;;;9.93;6.47;;;22.90;99.90;;;;;;5016306;28;20049;-84
2023/08/20 03:19:19;;;;;;;8.55;6.22;;;22.90;99.90;;;;;;5017206;28;20026;-85
2023/08/20 03:21:44;;;;;;;8.23;6.30;;;22.90;99.90;;;;;;5016164;28;20109;-86
2023/08/20 03:24:10;;;;;;;9.07;6.40;;;22.90;99.90;;;;;;5016601;28;20033;-87
2023/08/20 03:26:35;;;;;;;8.75;6.70;;;22.90;99.90;;;;;;4999258;28;20125;-87
2023/08/20 03:29:01;;;;;;;9.43;6.82;;;22.90;99.90;;;;;;4999728;28;20041;-86
2023/08/20 03:31:27;;;;;;;9.98;6.43;;;22.90;99.90;;;;;;5017271;28;20021;-86
2023/08/20 03:33:52;;;;;;;8.82;6.50;;;22.80;99.90;;;;;;5016556;28;20034;-86
2023/08/20 03:36:18;;;;;;;10.38;6.15;;;22.90;99.90;;;;;;5016931;28;20044;-85
2023/08/20 03:38:43;;;;;;;8.63;6.95;;;23.00;99.90;;;;;;4998940;28;20049;-85
2023/08/20 03:41:09;;;;;;;8.38;6.60;;;23.00;99.90;;;;;;5016817;28;20054;-86
2023/08/20 03:43:34;;;;;;;9.77;6.55;;;23.00;99.90;;;;;;5016469;28;20034;-87
2023/08/20 03:46:02;;;;;;;10.02;6.35;;;23.00;99.90;;;;;;4999087;28;20030;-86
2023/08/20 03:48:28;;;;;;;8.98;6.50;;;22.90;99.90;;;;;;4999482;28;20099;-86
2023/08/20 03:50:53;;;;;;;11.27;6.75;;;22.90;99.90;;;;;;5016062;28;20113;-86
2023/08/20 03:53:19;;;;;;;13.40;6.22;;;22.90;99.90;;;;;;4999011;28;20022;-86
2023/08/20 03:55:51;;;;;;;9.45;6.43;;;22.90;99.90;;;;;;5015635;28;20026;-86
2023/08/20 03:58:17;;;;;;;10.48;6.70;;;22.80;99.90;;;;;;4998911;28;20022;-86
2023/08/20 04:00:44;;;;;;;8.77;6.20;;;22.80;99.90;;;;;;4998436;28;20037;-86
2023/08/20 04:03:09;;;;;;;7.72;6.05;;;22.80;99.90;;;;;;5015987;28;20033;-86
2023/08/20 04:05:38;;;;;;;9.32;6.47;;;22.80;99.90;;;;;;4998181;28;20034;-87
2023/08/20 04:08:05;;;;;;;8.82;6.70;;;22.70;99.90;;;;;;5016205;28;20092;-86
2023/08/20 04:10:31;;;;;;;9.68;6.50;;;22.70;99.90;;;;;;5015661;28;20103;-86
2023/08/20 04:12:58;;;;;;;8.60;6.10;;;22.80;99.90;;;;;;4998150;28;20030;-86
2023/08/20 04:15:23;;;;;;;11.75;6.30;;;22.80;99.90;;;;;;4998707;28;20040;-86
2023/08/20 04:17:49;;;;;;;9.05;6.20;;;22.80;99.90;;;;;;5015412;28;20047;-86
2023/08/20 04:20:15;;;;;;;8.25;6.28;;;22.80;99.90;;;;;;4998568;28;20076;-86
2023/08/20 04:22:41;;;;;;;9.02;6.65;;;22.70;99.90;;;;;;4998125;28;20080;-87
2023/08/20 04:25:07;;;;;;;7.82;6.00;;;22.70;99.90;;;;;;5015655;28;20026;-86
2023/08/20 04:27:33;;;;;;;10.60;6.55;;;22.70;99.90;;;;;;5015792;28;20038;-86
2023/08/20 04:29:58;;;;;;;9.13;6.53;;;22.70;99.90;;;;;;4997841;28;20117;-86
2023/08/20 04:32:24;;;;;;;8.43;6.18;;;22.60;99.90;;;;;;5015350;28;20117;-86
2023/08/20 04:34:51;;;;;;;6.85;5.82;;;22.60;99.90;;;;;;5015127;28;20069;-86
2023/08/20 04:37:20;;;;;;;9.05;6.38;;;22.60;99.90;;;;;;5015392;28;20025;-86
2023/08/20 04:39:46;;;;;;;8.45;6.07;;;22.60;99.90;;;;;;5014927;28;20061;-87
2023/08/20 04:42:11;;;;;;;8.80;6.13;;;22.60;99.90;;;;;;4998131;28;20121;-86
2023/08/20 04:44:37;;;;;;;9.50;6.50;;;22.60;99.90;;;;;;4997789;28;20030;-87
2023/08/20 04:47:02;;;;;;;8.85;6.50;;;22.60;99.90;;;;;;5015065;28;20037;-86
2023/08/20 04:49:29;;;;;;;9.85;6.30;;;22.60;99.90;;;;;;4997788;28;20029;-86
2023/08/20 04:51:55;;;;;;;8.85;6.15;;;22.60;99.90;;;;;;4997190;28;20026;-86
2023/08/20 04:54:21;;;;;;;10.40;6.38;;;22.60;99.90;;;;;;5015086;28;20114;-86
2023/08/20 04:56:47;;;;;;;11.00;6.88;;;22.50;99.90;;;;;;4997264;28;20503;-85
2023/08/20 04:59:13;;;;;;;9.93;6.55;;;22.50;99.90;;;;;;4998595;28;20116;-85
2023/08/20 05:01:39;;;;;;;9.88;6.97;;;22.50;99.90;;;;;;4998037;28;20033;-85
2023/08/20 05:04:05;;;;;;;8.00;6.78;;;22.50;99.90;;;;;;5015433;28;20040;-85
2023/08/20 05:06:30;;;;;;;9.80;6.60;;;22.60;99.90;;;;;;4998109;28;20382;-85
2023/08/20 05:08:56;;;;;;;8.07;6.75;;;22.60;99.90;;;;;;5013257;28;20026;-86
2023/08/20 05:11:21;;;;;;;9.07;7.00;;;22.60;99.90;;;;;;4997911;28;20478;-86
2023/08/20 05:13:49;;;;;;;9.40;6.88;;;22.60;99.90;;;;;;5014809;28;20095;-86
2023/08/20 05:16:15;;;;;;;10.63;6.82;;;22.60;99.90;;;;;;4997826;28;20029;-86
2023/08/20 05:18:40;;;;;;;9.80;6.28;;;22.60;99.90;;;;;;5014718;28;20079;-87
2023/08/20 05:21:06;;;;;;;8.63;6.18;;;22.60;99.90;;;;;;5014795;28;20037;-86
2023/08/20 05:23:32;;;;;;;9.68;6.68;;;22.60;99.90;;;;;;4997120;28;20142;-85
2023/08/20 05:25:57;;;;;;;8.98;6.57;;;22.70;99.90;;;;;;5014847;28;20033;-86
2023/08/20 05:28:23;;;;;;;11.50;6.75;;;22.80;99.90;;;;;;4997656;28;20030;-85
2023/08/20 05:30:56;;;;;;;9.23;6.68;;;22.90;99.90;;;;;;4997184;28;20092;-86
2023/08/20 05:33:22;;;;;;;10.10;6.40;;;23.00;99.90;;;;;;4997053;28;20026;-86
2023/08/20 05:35:48;;;;;;;10.15;6.80;;;23.00;99.90;;;;;;4997211;28;20037;-86
2023/08/20 05:38:13;;;;;;;8.77;6.38;;;23.00;99.90;;;;;;4997559;28;20112;-86
2023/08/20 05:40:39;;;;;;;10.18;6.47;;;23.00;99.90;;;;;;4997201;28;20108;-86
2023/08/20 05:43:04;;;;;;;10.85;6.82;;;23.10;99.90;;;;;;5014435;28;20026;-86
2023/08/20 05:45:30;;;;;;;10.63;6.28;;;23.20;99.90;;;;;;4997590;28;20561;-85
2023/08/20 05:47:56;;;;;;;10.45;6.82;;;23.20;99.90;;;;;;4996850;28;20029;-85
2023/08/20 05:50:21;;;;;;;9.30;6.45;;;23.20;99.90;;;;;;5014432;28;20033;-85
2023/08/20 05:52:48;;;;;;;9.55;6.63;;;23.20;99.90;;;;;;4997218;28;20465;-86
2023/08/20 05:55:14;;;;;;;9.50;6.38;;;23.30;99.90;;;;;;5014744;28;20060;-86
2023/08/20 05:57:41;;;;;;;13.88;7.20;;;23.30;99.90;;;;;;4997257;28;20026;-85
2023/08/20 06:00:07;;;;;;;12.15;7.15;;;23.40;99.90;;;;;;4996836;28;20037;-86
2023/08/20 06:02:33;;;;;;;9.27;6.72;;;23.40;99.90;;;;;;4997566;28;20489;-86
2023/08/20 06:04:58;;;;;;;12.25;7.15;;;23.50;99.90;;;;;;4996756;28;20022;-86
2023/08/20 06:07:24;;;;;;;8.75;6.45;;;23.60;99.90;;;;;;5014609;28;20528;-86
2023/08/20 06:09:50;;;;;;;10.20;6.28;;;23.60;99.90;;;;;;4996397;28;20065;-84
2023/08/20 06:12:16;;;;;;;9.93;6.40;;;23.60;99.90;;;;;;5014684;28;20030;-86
2023/08/20 06:14:41;;;;;;;11.48;6.30;;;23.60;99.90;;;;;;5014125;28;20033;-86
2023/08/20 06:17:07;;;;;;;8.38;6.10;;;23.60;99.90;;;;;;4996610;28;20026;-86
2023/08/20 06:19:33;;;;;;;8.35;5.72;;;23.60;99.90;;;;;;4998405;28;20072;-86
2023/08/20 06:21:59;;;;;;;9.82;5.78;;;23.60;99.90;;;;;;5017818;28;20036;-86
2023/08/20 06:24:24;;;;;;;9.35;6.50;;;23.70;99.90;;;;;;5001366;28;20128;-85
2023/08/20 06:26:51;;;;;;;9.10;6.80;;;23.70;99.90;;;;;;5017929;28;20127;-87
2023/08/20 06:29:17;;;;;;;11.23;6.30;;;23.70;99.90;;;;;;5000727;28;20076;-86
2023/08/20 06:31:43;;;;;;;9.95;6.25;;;23.70;99.90;;;;;;5000588;28;20451;-86
2023/08/20 06:34:09;;;;;;;13.95;7.43;;;23.70;99.90;;;;;;5000371;28;20042;-87
2023/08/20 06:36:35;;;;;;;10.30;6.30;;;23.70;99.90;;;;;;5017998;28;20452;-87
2023/08/20 06:39:01;;;;;;;9.90;6.50;;;23.80;99.90;;;;;;5000196;28;20037;-87
2023/08/20 06:41:26;;;;;;;9.35;5.97;;;23.80;99.90;;;;;;5000507;28;20093;-85
2023/08/20 06:43:52;;;;;;;9.85;5.82;;;23.80;99.90;;;;;;5017275;28;20026;-86
2023/08/20 06:46:17;;;;;;;7.22;5.50;;;23.90;99.90;;;;;;5000462;28;20030;-86
2023/08/20 06:48:43;;;;;;;6.85;5.68;;;23.90;99.90;;;;;;5000251;28;20033;-86
2023/08/20 06:51:12;;;;;;;9.68;5.80;;;23.90;99.90;;;;;;5016858;28;20045;-86
2023/08/20 06:53:37;;;;;;;8.93;5.47;;;24.00;99.90;;;;;;5000585;28;20026;-86
2023/08/20 06:56:03;;;;;;;9.13;5.40;;;24.00;99.90;;;;;;5017167;28;20029;-85
2023/08/20 06:58:29;;;;;;;8.10;5.22;;;24.00;99.90;;;;;;5000422;28;20036;-85
2023/08/20 07:00:55;;;;;;;8.98;5.32;;;24.00;99.90;;;;;;4999785;28;20026;-85
2023/08/20 07:03:20;;;;;;;8.57;5.57;;;24.10;99.90;;;;;;5000166;28;20069;-85
2023/08/20 07:05:46;;;;;;;7.20;5.22;;;24.10;99.90;;;;;;5000273;28;20537;-87
2023/08/20 07:08:12;;;;;;;9.80;5.22;;;24.20;99.90;;;;;;4999948;28;20025;-85
2023/08/20 07:10:37;;;;;;;8.68;4.88;;;24.20;99.90;;;;;;5000169;28;20080;-85
2023/08/20 07:13:03;;;;;;;7.30;4.60;;;24.20;99.90;;;;;;4999815;28;20037;-85
2023/08/20 07:15:29;;;;;;;8.40;5.57;;;24.20;99.90;;;;;;5017488;28;20133;-85
2023/08/20 07:17:55;;;;;;;7.38;5.30;;;24.20;99.90;;;;;;4999767;28;20057;-85
2023/08/20 07:20:20;;;;;;;10.73;5.15;;;24.30;99.90;;;;;;5017061;28;20026;-85
2023/08/20 07:22:46;;;;;;;9.10;5.20;;;24.40;99.90;;;;;;5016926;28;20026;-84
2023/08/20 07:25:11;;;;;;;10.18;5.22;;;24.40;99.90;;;;;;5016995;28;20494;-85
2023/08/20 07:27:37;;;;;;;9.23;5.10;;;24.50;99.90;;;;;;4999306;28;20080;-85
2023/08/20 07:30:02;;;;;;;6.68;4.75;;;24.40;99.90;;;;;;4998963;28;20029;-85
2023/08/20 07:32:28;;;;;;;6.95;5.10;;;24.40;99.90;;;;;;5016407;28;20030;-85
2023/08/20 07:34:54;;;;;;;8.88;4.97;;;24.40;99.90;;;;;;4992688;28;20113;-85
2023/08/20 07:37:19;;;;;;;7.13;4.65;;;24.40;99.90;;;;;;4997291;28;20048;-84
2023/08/20 07:39:45;;;;;;;6.97;4.72;;;24.40;99.90;;;;;;4996569;28;20101;-85
2023/08/20 07:42:12;;;;;;;8.32;5.10;;;24.40;99.90;;;;;;4977227;28;20065;-85
2023/08/20 07:44:37;;;;;;;10.10;5.60;;;24.40;99.90;;;;;;4979317;28;20427;-85
2023/08/20 07:47:03;;;;;;;6.90;4.80;;;24.50;99.90;;;;;;4979202;28;20031;-85
2023/08/20 07:49:28;;;;;;;6.68;5.20;;;24.50;99.90;;;;;;4996725;28;20176;-84
2023/08/20 07:51:55;;;;;;;11.18;5.00;;;24.50;99.90;;;;;;4979194;28;20033;-85
2023/08/20 07:54:21;;;;;;;8.18;4.78;;;24.50;99.90;;;;;;4979702;28;20062;-85
2023/08/20 07:56:47;;;;;;;6.68;5.07;;;24.50;99.90;;;;;;4979953;28;20073;-85
2023/08/20 07:59:12;;;;;;;6.60;4.90;;;24.60;99.90;;;;;;5003832;28;20493;-83
2023/08/20 08:01:38;;;;;;;10.98;5.85;;;24.60;99.90;;;;;;4998866;28;20045;-80
2023/08/20 08:04:03;;;;;;;7.80;5.43;;;24.60;99.90;;;;;;4997986;28;20029;-80
2023/08/20 08:06:29;;;;;;;7.03;5.47;;;24.70;99.90;;;;;;5016047;28;20105;-80
2023/08/20 08:08:55;;;;;;;16.20;7.75;;;24.70;99.90;;;;;;4997789;28;20026;-80
2023/08/20 08:11:20;;;;;;;8.05;5.95;;;24.70;99.90;;;;;;5015663;28;20042;-80
2023/08/20 08:13:46;;;;;;;7.43;5.57;;;24.70;99.90;;;;;;5015492;28;20522;-79
2023/08/20 08:16:11;;;;;;;8.95;6.15;;;24.70;99.90;;;;;;4998068;28;20022;-81
2023/08/20 08:18:37;;;;;;;7.60;5.90;;;24.80;99.90;;;;;;4998418;28;20471;-81
2023/08/20 08:21:03;;;;;;;10.95;5.50;;;24.80;99.90;;;;;;4997935;28;20033;-81
2023/08/20 08:23:28;;;;;;;11.20;5.32;;;24.90;99.90;;;;;;5015655;28;20164;-92
2023/08/20 08:25:54;;;;;;;6.60;5.13;;;24.90;99.90;;;;;;5015817;28;20528;-88
2023/08/20 08:28:20;;;;;;;7.68;5.35;;;24.90;99.90;;;;;;4999562;28;20037;-96
2023/08/20 08:30:45;;;;;;;6.50;5.47;;;24.90;99.90;;;;;;4999214;28;20043;-91
2023/08/20 08:33:11;;;;;;;9.25;6.18;;;25.00;99.90;;;;;;4978452;28;20030;-82
2023/08/20 08:35:36;;;;;;;11.32;6.20;;;25.00;99.90;;;;;;4978679;28;20463;-83
2023/08/20 08:38:03;;;;;;;9.70;5.60;;;25.00;99.90;;;;;;4978099;28;20030;-85
2023/08/20 08:40:30;;;;;;;7.85;5.68;;;25.10;99.90;;;;;;4996112;28;20081;-84
2023/08/20 08:42:56;;;;;;;10.32;5.25;;;25.10;99.90;;;;;;4994321;28;20026;-85
2023/08/20 08:45:22;;;;;;;8.65;5.80;;;25.10;99.90;;;;;;4995829;28;20030;-84
2023/08/20 08:47:49;;;;;;;8.65;5.45;;;25.20;99.90;;;;;;4978455;28;20062;-84
2023/08/20 08:50:15;;;;;;;8.68;5.43;;;25.20;99.90;;;;;;4977791;28;20034;-84
2023/08/20 08:52:41;;;;;;;9.35;5.90;;;25.20;99.90;;;;;;4978352;28;20098;-84
2023/08/20 08:55:10;;;;;;;7.80;5.50;;;25.30;99.90;;;;;;4978190;28;20034;-85
2023/08/20 08:57:38;;;;;;;11.23;5.68;;;25.30;99.90;;;;;;4978197;28;20030;-84
2023/08/20 09:00:05;;;;;;;8.18;5.70;;;25.30;99.90;;;;;;4994770;28;20556;-84
2023/08/20 09:02:31;;;;;;;9.90;5.40;;;25.30;99.90;;;;;;4978014;28;20080;-84
2023/08/20 09:04:58;;;;;;;7.30;5.53;;;25.40;99.90;;;;;;4994669;28;20113;-84
2023/08/20 09:07:23;;;;;;;9.50;6.20;;;25.40;99.90;;;;;;4995692;28;20602;-83
2023/08/20 09:09:49;;;;;;;7.22;5.15;;;25.40;99.90;;;;;;4977995;28;20065;-83
2023/08/20 09:12:16;;;;;;;6.90;5.30;;;25.40;99.90;;;;;;4994755;28;20026;-84
2023/08/20 09:14:48;;;;;;;9.43;5.43;;;25.50;99.90;;;;;;4978376;28;20057;-85
2023/08/20 09:17:14;;;;;;;8.65;5.30;;;25.50;99.90;;;;;;4977785;28;20041;-86
2023/08/20 09:19:39;;;;;;;9.90;5.25;;;25.50;99.90;;;;;;4977898;28;20033;-84
2023/08/20 09:22:05;;;;;;;7.85;5.57;;;25.60;99.90;;;;;;4994609;28;20022;-84
2023/08/20 09:24:44;;;;;;;8.65;5.30;;;25.60;99.90;;;;;;4994944;28;20038;-84
2023/08/20 09:27:11;;;;;;;7.90;5.32;;;25.70;99.90;;;;;;4977127;28;20531;-88
2023/08/20 09:29:54;;;;;;;8.55;4.85;;;25.70;99.90;;;;;;4994853;28;20026;-88
2023/08/20 09:32:23;;;;;;;6.22;4.97;;;25.70;99.90;;;;;;4977788;28;20030;-83
2023/08/20 09:34:50;;;;;;;7.75;5.55;;;25.80;99.90;;;;;;4977970;28;20037;-85
2023/08/20 09:37:18;;;;;;;8.00;5.30;;;25.90;99.90;;;;;;4977323;28;20030;-85
2023/08/20 09:39:44;;;;;;;8.18;5.07;;;25.90;99.90;;;;;;4994559;28;20125;-85
2023/08/20 09:42:12;;;;;;;10.10;5.50;;;25.90;99.90;;;;;;4977629;28;20034;-92
2023/08/20 09:44:40;;;;;;;8.27;5.20;;;25.90;99.90;;;;;;4977468;28;20053;-91
2023/08/20 09:47:08;;;;;;;9.75;4.90;;;26.00;99.90;;;;;;4977223;28;20030;-91
2023/08/20 09:49:38;;;;;;;8.23;5.43;;;26.00;99.90;;;;;;4977817;28;20034;-90
2023/08/20 09:52:06;;;;;;;6.10;4.97;;;26.10;99.90;;;;;;4977497;28;20030;-89
2023/08/20 09:55:07;;;;;;;9.77;5.45;;;26.10;99.90;;;;;;4977752;28;20038;-88
2023/08/20 09:57:40;;;;;;;8.13;5.63;;;26.20;99.90;;;;;;4961841;28;20555;-87
2023/08/20 10:00:10;;;;;;;10.75;5.57;;;26.20;99.90;;;;;;4977206;28;20034;-87
2023/08/20 10:02:37;;;;;;;8.40;5.03;;;26.20;99.90;;;;;;4977434;28;20506;-91
2023/08/20 10:05:06;;;;;;;7.82;5.63;;;26.20;99.90;;;;;;4994055;28;20030;-90
2023/08/20 10:07:32;;;;;;;9.18;5.90;;;26.30;99.90;;;;;;4994333;28;20058;-88
2023/08/20 10:10:00;;;;;;;8.50;5.50;;;26.40;99.90;;;;;;4993988;28;20064;-88
2023/08/20 10:12:29;;;;;;;7.80;4.75;;;26.50;99.90;;;;;;4977671;28;20026;-88
2023/08/20 10:14:56;;;;;;;10.40;5.15;;;26.50;99.90;;;;;;5000300;28;20029;-89
2023/08/20 10:17:23;;;;;;;7.32;5.10;;;26.50;99.90;;;;;;4979569;28;20033;-89
2023/08/20 10:19:49;;;;;;;12.90;5.10;;;26.60;99.90;;;;;;4977822;28;20045;-88
2023/08/20 10:22:14;;;;;;;8.60;5.80;;;26.70;99.90;;;;;;5002316;28;20022;-88
2023/08/20 10:24:49;;;;;;;11.88;5.70;;;26.70;99.90;;;;;;4996577;28;20411;-89
2023/08/20 10:27:25;;;;;;;9.50;5.63;;;26.80;99.90;;;;;;5001601;28;20034;-91
2023/08/20 10:29:52;;;;;;;11.50;6.28;;;26.80;99.90;;;;;;4994301;28;20053;-90
2023/08/20 10:32:18;;;;;;;9.13;5.63;;;26.80;99.90;;;;;;4976767;28;20435;-90
2023/08/20 10:34:51;;;;;;;11.18;5.65;;;26.90;99.90;;;;;;4977170;28;20030;-90
2023/08/20 10:37:27;;;;;;;7.35;5.13;;;27.00;99.90;;;;;;4976624;28;20033;-90
2023/08/20 10:39:56;;;;;;;6.68;5.32;;;27.00;99.90;;;;;;4977992;28;20097;-90
2023/08/20 10:42:27;;;;;;;7.22;5.55;;;27.10;99.90;;;;;;4992418;28;20057;-90
2023/08/20 10:45:00;;;;;;;7.57;5.25;;;27.20;99.90;;;;;;4994074;28;20109;-90
2023/08/20 10:47:34;;;;;;;6.43;4.63;;;27.20;99.90;;;;;;4993266;28;20034;-89
2023/08/20 10:50:00;;;;;;;8.35;4.80;;;27.20;99.90;;;;;;4992876;28;20026;-88
2023/08/20 10:52:26;;;;;;;8.90;4.93;;;27.20;99.90;;;;;;4993519;28;20387;-90
2023/08/20 10:54:52;;;;;;;8.40;5.07;;;27.20;99.90;;;;;;4993211;28;20121;-90
2023/08/20 10:57:21;;;;;;;6.13;4.25;;;27.20;99.90;;;;;;4992624;28;20582;-90
2023/08/20 11:00:01;;;;;;;9.00;4.65;;;27.20;99.90;;;;;;4993166;28;20030;-91
2023/08/20 11:02:27;;;;;;;6.32;4.78;;;27.30;99.90;;;;;;4973779;28;20084;-90
2023/08/20 11:04:53;;;;;;;9.70;4.78;;;27.30;99.90;;;;;;4973587;28;20129;-92
2023/08/20 11:07:20;;;;;;;8.75;4.70;;;27.30;99.90;;;;;;4975445;28;20038;-90
2023/08/20 11:09:48;;;;;;;9.30;4.82;;;27.40;99.90;;;;;;4977139;28;20037;-91
2023/08/20 11:12:19;;;;;;;8.80;4.25;;;27.40;99.90;;;;;;4976743;28;20031;-90
2023/08/20 11:14:45;;;;;;;8.13;4.75;;;27.40;99.90;;;;;;4978017;28;20041;-91
2023/08/20 11:17:10;;;;;;;7.30;5.05;;;27.50;99.90;;;;;;4976421;28;20031;-90
2023/08/20 11:19:36;;;;;;;7.35;4.30;;;27.50;99.90;;;;;;4977792;28;20110;-90
2023/08/20 11:22:02;;;;;;;5.15;3.47;;;27.60;99.90;;;;;;4976416;28;20058;-89
2023/08/20 11:24:31;;;;;;;5.93;3.50;;;27.70;99.90;;;;;;4976869;28;20077;-89
2023/08/20 11:26:56;;;;;;;5.88;3.42;;;27.80;99.90;;;;;;4976880;28;20041;-91
2023/08/20 11:29:22;;;;;;;7.85;3.85;;;27.80;99.90;;;;;;4976337;28;20023;-91
2023/08/20 11:31:49;;;;;;;3.85;3.40;;;28.00;99.90;;;;;;4976673;28;20035;-90
2023/08/20 11:34:15;;;;;;;5.97;4.28;;;28.10;99.90;;;;;;4976371;28;20042;-89
2023/08/20 11:36:41;;;;;;;8.60;4.10;;;28.10;99.90;;;;;;4976525;28;20031;-89
2023/08/20 11:39:07;;;;;;;4.78;3.55;;;28.00;99.90;;;;;;4976145;28;20104;-88
2023/08/20 11:41:36;;;;;;;4.55;3.90;;;28.10;99.90;;;;;;4977473;28;20158;-90
2023/08/20 11:44:03;;;;;;;6.32;3.63;;;28.20;99.90;;;;;;4977767;28;20034;-89
2023/08/20 11:46:28;;;;;;;7.57;3.55;;;28.10;99.90;;;;;;4977828;28;20037;-90
2023/08/20 11:49:08;;;;;;;5.30;3.38;;;28.20;99.90;;;;;;4979724;28;20028;-92
2023/08/20 11:51:37;;;;;;;4.75;3.72;;;28.20;99.90;;;;;;4977815;28;20102;-90
2023/08/20 11:54:06;;;;;;;4.47;3.70;;;28.30;99.90;;;;;;4976194;28;20117;-89
2023/08/20 11:56:33;;;;;;;3.95;3.42;;;28.40;99.90;;;;;;4976174;28;20099;-88
2023/08/20 11:59:00;;;;;;;4.60;3.53;;;28.60;99.90;;;;;;4976502;28;20069;-91
2023/08/20 12:01:30;;;;;;;4.75;3.50;;;28.50;99.90;;;;;;4976745;28;20060;-87
2023/08/20 12:04:07;;;;;;;4.03;3.30;;;28.60;99.90;;;;;;4975589;28;20030;-90
2023/08/20 12:06:34;;;;;;;5.20;3.63;;;28.70;99.90;;;;;;4975529;28;20445;-85
2023/08/20 12:09:00;;;;;;;5.32;3.70;;;28.70;99.90;;;;;;4977367;28;20031;-86
2023/08/20 12:11:27;;;;;;;5.72;3.30;;;28.80;99.90;;;;;;4975755;28;20065;-89
2023/08/20 12:13:53;;;;;;;4.55;3.35;;;28.80;99.90;;;;;;4976040;28;20035;-87
2023/08/20 12:16:23;;;;;;;4.78;3.55;;;29.00;99.90;;;;;;4975387;28;20030;-90
2023/08/20 12:18:49;;;;;;;6.10;3.80;;;29.30;99.90;;;;;;4975854;28;20037;-85
2023/08/20 12:21:15;;;;;;;5.28;3.97;;;29.50;99.90;;;;;;4975302;28;20026;-86
2023/08/20 12:23:40;;;;;;;4.50;3.80;;;29.80;99.90;;;;;;4976027;28;20027;-84
2023/08/20 12:26:07;;;;;;;6.80;4.15;;;29.90;99.90;;;;;;4975351;28;20463;-88
2023/08/20 12:28:33;;;;;;;4.82;3.58;;;30.10;99.90;;;;;;4975462;28;20026;-85
2023/08/20 12:30:59;;;;;;;6.75;4.18;;;30.10;99.90;;;;;;4976805;28;20468;-86
2023/08/20 12:33:25;;;;;;;5.30;3.70;;;30.10;99.90;;;;;;4975216;28;20027;-88
2023/08/20 12:35:53;;;;;;;6.50;3.72;;;30.00;99.90;;;;;;4985945;28;20023;-88
2023/08/20 12:38:19;;;;;;;5.28;3.63;;;29.90;99.90;;;;;;4975198;28;20082;-89
2023/08/20 12:40:45;;;;;;;6.75;3.70;;;29.90;99.90;;;;;;4991361;28;20054;-85
2023/08/20 12:43:10;;;;;;;5.28;3.83;;;29.90;99.90;;;;;;4975134;28;20031;-87